Time;durP1;ratioP1;P1;durP2;ratioP2;P2;SDS_P1;SDS_P2;PMS_P1;PMS_P2;Temp;Humidity;BMP_temperature;BMP_pressure;BME280_temperature;BME280_humidity;BME280_pressure;Samples;Min_cycle;Max_cycle;Signal;HPM_P1;HPM_P2
2022/06/20 00:00:28;;;;;;;13.80;2.70;;;;;;;21.16;55.79;99563.44;106125;1271;25235;-54
2022/06/20 00:03:09;;;;;;;17.70;2.60;;;;;;;21.18;55.91;99564.86;106166;1271;25365;-55
2022/06/20 00:05:41;;;;;;;14.80;2.10;;;;;;;21.17;56.22;99567.63;106296;1271;24278;-54
2022/06/20 00:08:13;;;;;;;14.70;2.90;;;;;;;21.14;56.63;99570.13;106198;1271;24288;-53
2022/06/20 00:10:46;;;;;;;13.90;2.40;;;;;;;21.07;56.96;99569.95;106321;1271;22935;-54
2022/06/20 00:13:24;;;;;;;9.30;2.10;;;;;;;20.99;57.33;99566.77;106204;1271;22585;-55
2022/06/20 00:15:57;;;;;;;15.90;3.70;;;;;;;20.93;58.05;99575.63;106143;1271;22558;-51
2022/06/20 00:18:29;;;;;;;12.40;3.50;;;;;;;20.93;58.57;99568.92;106207;1271;22651;-53
2022/06/20 00:21:00;;;;;;;13.60;2.20;;;;;;;20.95;58.77;99561.52;106180;1271;22571;-53
2022/06/20 00:23:32;;;;;;;15.60;2.80;;;;;;;20.99;58.90;99559.52;106183;1271;22530;-55
2022/06/20 00:26:04;;;;;;;14.00;2.60;;;;;;;21.00;58.98;99566.89;106164;1271;24221;-54
2022/06/20 00:28:35;;;;;;;13.80;3.10;;;;;;;21.02;59.45;99567.33;106253;1271;22548;-55
2022/06/20 00:31:08;;;;;;;14.80;2.30;;;;;;;21.01;59.83;99562.73;106102;1271;22617;-53
2022/06/20 00:33:39;;;;;;;13.50;2.90;;;;;;;21.01;59.79;99563.16;106293;1271;22569;-54
2022/06/20 00:36:11;;;;;;;12.90;2.80;;;;;;;21.01;59.86;99557.00;106234;1271;26479;-53
2022/06/20 00:38:43;;;;;;;14.40;2.50;;;;;;;21.01;60.05;99562.44;106213;1271;25352;-55
2022/06/20 00:41:21;;;;;;;12.00;2.50;;;;;;;21.01;60.19;99565.56;106370;1271;22586;-51
2022/06/20 00:43:54;;;;;;;16.30;3.20;;;;;;;21.01;60.23;99562.67;106193;1271;22538;-51
2022/06/20 00:46:32;;;;;;;17.30;4.30;;;;;;;21.02;60.37;99565.62;106221;1271;22553;-55
2022/06/20 00:49:11;;;;;;;13.90;2.60;;;;;;;21.03;60.41;99568.54;106157;1271;22675;-54
2022/06/20 00:51:49;;;;;;;14.50;3.70;;;;;;;21.03;60.48;99563.67;106278;1271;24229;-51
2022/06/20 00:54:25;;;;;;;16.80;3.30;;;;;;;21.05;60.57;99564.23;106219;1271;22590;-54
2022/06/20 00:57:02;;;;;;;14.20;3.10;;;;;;;21.06;60.65;99562.30;106536;1271;23969;-54
2022/06/20 00:59:39;;;;;;;21.40;3.50;;;;;;;21.05;61.09;99563.77;106505;1271;22549;-53
2022/06/20 01:02:18;;;;;;;14.50;2.80;;;;;;;21.01;61.25;99560.05;106273;1271;22713;-51
2022/06/20 01:04:56;;;;;;;14.40;3.60;;;;;;;20.98;61.16;99557.21;106248;1271;22547;-54
2022/06/20 01:07:34;;;;;;;13.60;3.60;;;;;;;20.97;61.48;99560.71;106372;1271;22571;-54
2022/06/20 01:10:09;;;;;;;14.10;2.60;;;;;;;20.93;61.58;99561.77;106285;1271;22544;-54
2022/06/20 01:12:49;;;;;;;14.20;3.70;;;;;;;20.91;61.59;99558.22;106175;1271;22554;-55
2022/06/20 01:15:24;;;;;;;17.10;3.80;;;;;;;20.92;61.57;99559.35;106133;1271;22667;-53
2022/06/20 01:17:56;;;;;;;20.00;3.90;;;;;;;20.92;61.79;99559.73;106222;1271;24220;-54
2022/06/20 01:20:31;;;;;;;18.50;2.90;;;;;;;20.90;61.70;99564.66;106300;1271;25252;-51
2022/06/20 01:23:16;;;;;;;12.00;2.40;;;;;;;20.88;61.74;99560.08;106202;1271;22989;-55
2022/06/20 01:26:09;;;;;;;15.40;2.90;;;;;;;20.87;61.63;99563.04;106134;1271;22546;-51
2022/06/20 01:28:44;;;;;;;11.60;2.40;;;;;;;20.85;61.84;99564.91;106092;1271;24319;-51
2022/06/20 01:31:20;;;;;;;12.50;2.90;;;;;;;20.82;62.18;99570.02;106247;1271;26070;-55
2022/06/20 01:33:53;;;;;;;19.80;4.20;;;;;;;20.78;62.35;99571.98;106257;1270;24249;-55
2022/06/20 01:39:14;;;;;;;;;;;;;;;20.68;62.82;99585.66;106113;1270;24194;-54
2022/06/20 01:44:40;;;;;;;9.70;2.80;;;;;;;20.54;63.02;99595.13;106191;1271;22540;-54
2022/06/20 01:47:12;;;;;;;15.80;3.50;;;;;;;20.47;63.49;99600.14;106226;1270;25620;-54
2022/06/20 01:49:46;;;;;;;19.80;3.20;;;;;;;20.40;63.94;99595.00;106207;1271;22527;-52
2022/06/20 01:52:24;;;;;;;19.90;4.00;;;;;;;20.31;64.13;99596.73;106042;1271;22551;-55
2022/06/20 01:55:01;;;;;;;15.70;3.90;;;;;;;20.25;64.34;99598.66;106035;1271;23938;-56
2022/06/20 01:57:36;;;;;;;18.40;4.00;;;;;;;20.20;64.69;99602.38;105721;1271;637587;-54
2022/06/20 02:00:14;;;;;;;15.10;3.50;;;;;;;20.12;65.10;99609.17;106038;1271;24222;-52
2022/06/20 02:02:49;;;;;;;12.10;3.20;;;;;;;20.07;65.50;99615.95;106108;1271;22531;-55
2022/06/20 02:05:24;;;;;;;15.00;3.50;;;;;;;20.02;66.10;99625.08;106110;1271;24197;-55
2022/06/20 02:07:58;;;;;;;15.50;3.10;;;;;;;19.97;66.73;99626.83;106079;1271;22561;-54
2022/06/20 02:10:37;;;;;;;14.50;3.80;;;;;;;19.96;68.01;99624.44;106153;1271;25247;-52
2022/06/20 02:13:10;;;;;;;18.00;4.50;;;;;;;19.96;68.80;99634.08;106229;1271;26458;-54
2022/06/20 02:15:44;;;;;;;17.00;4.20;;;;;;;19.94;69.23;99651.44;106248;1270;22525;-54
2022/06/20 02:18:17;;;;;;;16.10;4.00;;;;;;;19.92;69.81;99657.05;106176;1271;23079;-55
2022/06/20 02:20:55;;;;;;;18.20;3.80;;;;;;;19.89;70.00;99664.71;106259;1271;25195;-53
2022/06/20 02:23:31;;;;;;;16.00;4.20;;;;;;;19.86;70.35;99663.55;106121;1270;22570;-54
2022/06/20 02:26:06;;;;;;;16.00;4.10;;;;;;;19.84;71.54;99657.48;106104;1271;22538;-54
2022/06/20 02:28:43;;;;;;;19.70;5.10;;;;;;;19.79;71.68;99655.09;106195;1271;22533;-53
2022/06/20 02:31:14;;;;;;;20.60;4.60;;;;;;;19.77;72.10;99659.34;106166;1271;22538;-53
2022/06/20 02:33:48;;;;;;;17.00;5.10;;;;;;;19.74;72.59;99657.88;106139;1271;22749;-54
2022/06/20 02:36:20;;;;;;;16.30;5.30;;;;;;;19.70;72.92;99654.95;106216;1271;22548;-55
2022/06/20 02:38:52;;;;;;;20.30;6.00;;;;;;;19.70;72.85;99664.29;106271;1271;22573;-55
2022/06/20 02:41:30;;;;;;;22.90;5.90;;;;;;;19.69;72.93;99668.73;106112;1271;22561;-52
2022/06/20 02:44:07;;;;;;;21.40;6.10;;;;;;;19.66;73.15;99670.70;106169;1271;22548;-54
2022/06/20 02:46:41;;;;;;;21.80;6.50;;;;;;;19.64;73.93;99670.92;106305;1271;24262;-54
2022/06/20 02:49:14;;;;;;;16.00;6.60;;;;;;;19.60;74.12;99671.84;106150;1271;23237;-53
2022/06/20 02:51:50;;;;;;;23.40;7.30;;;;;;;19.57;74.06;99670.69;106212;1271;24226;-52
2022/06/20 02:54:26;;;;;;;19.80;7.10;;;;;;;19.56;73.91;99675.50;106243;1271;24281;-54
2022/06/20 02:57:03;;;;;;;24.00;7.60;;;;;;;19.56;74.61;99683.63;106247;1271;22534;-54
2022/06/20 02:59:43;;;;;;;18.10;7.40;;;;;;;19.55;74.35;99686.29;106372;1271;22545;-54
2022/06/20 03:02:17;;;;;;;20.70;7.60;;;;;;;19.54;74.55;99690.33;106147;1271;24162;-54
2022/06/20 03:04:50;;;;;;;21.40;7.20;;;;;;;19.55;74.59;99689.33;106089;1271;22571;-54
2022/06/20 03:07:25;;;;;;;20.40;7.80;;;;;;;19.58;74.90;99693.94;106106;1271;26039;-53
2022/06/20 03:10:01;;;;;;;20.90;7.30;;;;;;;19.59;74.61;99688.91;106244;1271;25468;-54
2022/06/20 03:12:33;;;;;;;22.40;7.90;;;;;;;19.61;75.14;99687.17;106125;1271;25332;-54
2022/06/20 03:15:08;;;;;;;22.70;7.70;;;;;;;19.61;75.33;99684.69;106283;1271;22537;-51
2022/06/20 03:17:43;;;;;;;23.10;7.20;;;;;;;19.60;75.42;99690.83;106250;1271;24304;-54
2022/06/20 03:20:19;;;;;;;22.20;7.20;;;;;;;19.62;75.55;99686.27;106167;1271;25451;-53
2022/06/20 03:22:56;;;;;;;24.40;7.80;;;;;;;19.62;74.99;99680.65;106366;1271;22478;-53
2022/06/20 03:25:30;;;;;;;22.80;6.70;;;;;;;19.67;74.97;99678.45;106197;1271;22533;-53
2022/06/20 03:28:02;;;;;;;23.80;8.60;;;;;;;19.71;74.93;99668.67;106260;1271;22569;-55
2022/06/20 03:30:36;;;;;;;18.80;6.20;;;;;;;19.70;75.27;99666.58;106187;1271;22520;-54
2022/06/20 03:33:14;;;;;;;16.20;6.80;;;;;;;19.68;75.10;99663.70;106245;1271;25217;-54
2022/06/20 03:35:49;;;;;;;15.80;5.90;;;;;;;19.66;75.47;99660.77;106369;1271;22574;-53
2022/06/20 03:38:21;;;;;;;19.60;6.10;;;;;;;19.61;75.22;99657.45;106311;1271;25369;-54
2022/06/20 03:40:53;;;;;;;14.40;5.10;;;;;;;19.60;75.19;99660.73;106284;1271;24204;-54
2022/06/20 03:43:26;;;;;;;13.60;5.70;;;;;;;19.60;75.07;99658.24;106241;1271;22567;-51
2022/06/20 03:46:01;;;;;;;17.20;5.60;;;;;;;19.64;75.06;99654.49;106247;1271;25662;-55
2022/06/20 03:48:38;;;;;;;15.10;5.90;;;;;;;19.65;74.88;99653.75;106225;1271;25315;-55
2022/06/20 03:51:16;;;;;;;15.00;5.70;;;;;;;19.66;75.07;99654.13;106175;1270;22525;-55
2022/06/20 03:53:53;;;;;;;15.60;5.70;;;;;;;19.67;74.94;99661.20;106143;1271;22546;-53
2022/06/20 03:56:31;;;;;;;17.70;7.00;;;;;;;19.69;75.09;99664.05;106288;1271;24359;-55
2022/06/20 03:59:12;;;;;;;14.90;5.10;;;;;;;19.68;74.88;99661.70;106135;1271;22546;-52
2022/06/20 04:01:48;;;;;;;21.20;7.00;;;;;;;19.71;75.07;99662.20;106301;1271;24229;-52
2022/06/20 04:04:28;;;;;;;17.30;6.30;;;;;;;19.72;74.90;99662.10;106062;1271;26944;-55
2022/06/20 04:07:03;;;;;;;18.60;6.80;;;;;;;19.75;74.85;99661.02;106025;1270;22558;-55
2022/06/20 04:12:36;;;;;;;19.70;5.90;;;;;;;19.82;74.87;99667.98;106081;1271;25397;-53
2022/06/20 04:15:15;;;;;;;17.50;7.00;;;;;;;19.84;74.88;99669.84;106138;1270;22586;-55
2022/06/20 04:20:46;;;;;;;17.10;5.80;;;;;;;19.89;74.62;99664.55;106092;1270;24174;-54
2022/06/20 04:23:24;;;;;;;15.80;6.30;;;;;;;19.96;75.09;99667.77;105934;1270;22544;-54
2022/06/20 04:26:01;;;;;;;18.40;6.60;;;;;;;19.99;74.77;99668.08;106434;1270;23054;-55
2022/06/20 04:28:40;;;;;;;14.60;5.60;;;;;;;20.04;74.77;99659.77;106028;1271;22486;-53
2022/06/20 04:31:19;;;;;;;15.50;6.30;;;;;;;20.07;74.62;99654.26;106385;1263;22598;-63
2022/06/20 04:33:56;;;;;;;16.20;6.50;;;;;;;20.12;74.47;99645.60;106117;1271;22555;-63
2022/06/20 04:36:35;;;;;;;20.70;6.90;;;;;;;20.23;74.36;99649.61;105687;1271;22555;-64
2022/06/20 04:39:15;;;;;;;15.40;6.10;;;;;;;20.32;74.70;99648.20;105819;1273;24296;-64
2022/06/20 04:41:58;;;;;;;14.30;6.20;;;;;;;20.34;74.32;99646.89;106500;1273;22623;-64
2022/06/20 04:44:36;;;;;;;17.60;6.50;;;;;;;20.38;74.44;99644.60;106109;1271;25312;-64
2022/06/20 04:47:19;;;;;;;18.60;6.20;;;;;;;20.42;74.16;99652.45;105688;1274;23172;-64
2022/06/20 04:49:50;;;;;;;16.00;6.70;;;;;;;20.49;74.00;99653.19;105821;1273;24328;-64
2022/06/20 04:52:26;;;;;;;19.80;6.90;;;;;;;20.56;73.89;99651.02;105747;1273;22584;-64
2022/06/20 04:54:59;;;;;;;21.00;7.10;;;;;;;20.59;73.96;99650.75;107939;1271;25544;-64
2022/06/20 04:57:34;;;;;;;20.00;5.50;;;;;;;20.63;73.73;99653.39;105728;1271;23320;-64
2022/06/20 05:00:16;;;;;;;22.10;6.30;;;;;;;20.68;73.68;99653.52;105829;1272;24275;-64
2022/06/20 05:02:48;;;;;;;17.80;6.20;;;;;;;20.72;73.47;99653.25;105681;1271;24367;-65
2022/06/20 05:05:23;;;;;;;19.60;7.10;;;;;;;20.76;73.35;99648.15;106404;1272;23174;-65
2022/06/20 05:07:55;;;;;;;15.40;6.80;;;;;;;20.82;73.56;99651.54;105808;1270;22615;-64
2022/06/20 05:10:30;;;;;;;16.80;6.30;;;;;;;20.83;73.67;99657.48;105667;1271;22533;-64
2022/06/20 05:13:09;;;;;;;22.50;6.20;;;;;;;20.84;73.54;99654.61;105863;1273;22817;-64
2022/06/20 05:15:44;;;;;;;17.00;6.50;;;;;;;20.90;73.68;99653.48;105712;1272;25313;-64
2022/06/20 05:18:24;;;;;;;15.10;6.20;;;;;;;20.96;73.63;99652.05;105692;1271;24399;-64
2022/06/20 05:21:01;;;;;;;17.70;6.50;;;;;;;21.02;73.65;99648.48;105887;1271;26013;-65
2022/06/20 05:23:38;;;;;;;19.40;6.30;;;;;;;21.08;73.57;99639.27;105912;1271;24301;-64
2022/06/20 05:26:17;;;;;;;20.30;6.00;;;;;;;21.18;73.71;99636.39;105927;1271;25315;-64
2022/06/20 05:28:51;;;;;;;17.90;6.00;;;;;;;21.27;73.47;99632.45;105716;1271;25264;-64
2022/06/20 05:31:29;;;;;;;22.70;7.00;;;;;;;21.36;73.37;99631.22;105801;1271;24922;-64
2022/06/20 05:34:07;;;;;;;16.80;6.20;;;;;;;21.42;73.34;99622.91;105756;1271;22535;-65
2022/06/20 05:36:49;;;;;;;18.60;6.80;;;;;;;21.46;73.25;99609.95;105851;1271;24474;-65
2022/06/20 05:39:26;;;;;;;21.20;6.90;;;;;;;21.52;73.22;99606.55;105790;1271;22573;-65
2022/06/20 05:41:59;;;;;;;14.40;5.10;;;;;;;21.59;73.15;99607.75;105758;1272;25401;-64
2022/06/20 05:44:32;;;;;;;17.70;5.30;;;;;;;21.63;72.83;99610.20;105831;1271;26639;-64
2022/06/20 05:47:11;;;;;;;14.50;5.40;;;;;;;21.68;72.86;99614.39;105816;1271;25330;-64
2022/06/20 05:49:46;;;;;;;18.50;6.40;;;;;;;21.74;72.75;99616.95;105682;1271;22594;-64
2022/06/20 05:52:24;;;;;;;14.40;5.70;;;;;;;21.81;72.62;99615.75;105626;1271;24215;-64
2022/06/20 05:55:01;;;;;;;16.90;5.20;;;;;;;21.87;72.33;99614.11;105903;1271;24427;-64
2022/06/20 05:57:35;;;;;;;16.90;5.60;;;;;;;21.93;72.27;99619.82;106056;1271;26500;-64
2022/06/20 06:00:16;;;;;;;17.80;5.20;;;;;;;21.98;72.03;99627.91;105797;1271;22652;-65
2022/06/20 06:02:52;;;;;;;18.60;5.30;;;;;;;22.03;71.89;99621.75;105783;1273;24076;-64
2022/06/20 06:05:32;;;;;;;17.00;6.80;;;;;;;22.11;71.77;99621.23;105768;1271;22708;-64
2022/06/20 06:08:12;;;;;;;16.10;5.30;;;;;;;22.18;71.71;99623.67;105965;1271;25430;-65
2022/06/20 06:10:47;;;;;;;20.10;6.30;;;;;;;22.20;71.37;99616.16;105765;1272;22548;-65
2022/06/20 06:13:26;;;;;;;21.80;6.60;;;;;;;22.20;71.29;99612.51;105889;1271;23250;-65
2022/06/20 06:19:01;;;;;;;15.20;4.80;;;;;;;22.39;71.22;99611.29;105865;1271;22578;-65
2022/06/20 06:21:34;;;;;;;14.90;5.50;;;;;;;22.51;70.99;99593.22;105978;1272;22547;-65
2022/06/20 06:24:11;;;;;;;16.40;5.40;;;;;;;22.66;70.75;99588.23;105911;1271;22570;-64
2022/06/20 06:26:46;;;;;;;15.50;5.40;;;;;;;22.78;70.43;99583.59;105966;1271;25223;-65
2022/06/20 06:29:22;;;;;;;16.40;5.70;;;;;;;22.86;69.95;99576.96;106006;1271;24524;-65
2022/06/20 06:31:59;;;;;;;20.00;5.30;;;;;;;22.91;69.73;99578.64;105919;1271;22609;-65
2022/06/20 06:34:38;;;;;;;13.00;5.00;;;;;;;23.00;69.69;99574.98;106008;1271;25256;-65
2022/06/20 06:37:16;;;;;;;18.80;6.40;;;;;;;23.10;69.52;99565.53;105981;1271;25345;-65
2022/06/20 06:39:53;;;;;;;16.60;5.80;;;;;;;23.15;68.88;99568.94;105923;1271;22532;-65
2022/06/20 06:42:25;;;;;;;14.90;5.30;;;;;;;23.08;68.68;99569.19;105861;1271;22686;-65
2022/06/20 06:44:59;;;;;;;14.40;6.00;;;;;;;23.12;68.78;99558.98;105844;1271;22567;-65
2022/06/20 06:47:41;;;;;;;16.30;5.70;;;;;;;23.12;68.68;99543.06;105862;1271;24068;-65
2022/06/20 06:50:25;;;;;;;11.00;4.70;;;;;;;23.21;68.87;99530.73;106007;1271;25352;-65
2022/06/20 06:53:02;;;;;;;13.90;5.20;;;;;;;23.35;68.66;99531.86;105988;1271;24321;-65
2022/06/20 06:55:39;;;;;;;14.10;4.90;;;;;;;23.47;68.26;99536.58;105810;1271;24332;-65
2022/06/20 06:58:19;;;;;;;13.20;4.50;;;;;;;23.58;68.09;99524.30;105667;1271;23803;-65
2022/06/20 07:00:55;;;;;;;15.60;5.20;;;;;;;23.73;67.79;99514.29;106061;1271;22563;-65
2022/06/20 07:03:33;;;;;;;14.30;5.30;;;;;;;23.88;67.38;99495.50;106019;1271;24731;-65
2022/06/20 07:06:13;;;;;;;14.50;4.60;;;;;;;23.98;67.08;99483.79;106154;1271;25401;-65
2022/06/20 07:08:48;;;;;;;17.50;5.50;;;;;;;24.01;66.64;99475.27;106149;1271;22753;-66
2022/06/20 07:11:23;;;;;;;17.90;5.70;;;;;;;24.05;66.68;99478.16;105786;1271;24920;-65
2022/06/20 07:14:02;;;;;;;17.10;4.80;;;;;;;24.13;66.71;99481.87;105784;1271;22637;-65
2022/06/20 07:16:39;;;;;;;15.20;4.90;;;;;;;24.25;66.41;99477.30;106260;1271;22550;-65
2022/06/20 07:19:14;;;;;;;18.90;6.40;;;;;;;24.36;66.04;99466.34;106010;1271;22684;-66
2022/06/20 07:21:47;;;;;;;16.90;4.70;;;;;;;24.49;65.99;99464.77;105778;1271;22547;-65
2022/06/20 07:24:23;;;;;;;15.90;5.30;;;;;;;24.59;65.57;99464.73;105853;1271;22702;-65
2022/06/20 07:26:59;;;;;;;20.20;4.10;;;;;;;24.69;65.31;99462.77;105870;1273;22547;-65
2022/06/20 07:29:37;;;;;;;15.30;5.70;;;;;;;24.73;65.15;99455.56;106476;1271;22550;-65
2022/06/20 07:32:13;;;;;;;14.80;4.90;;;;;;;24.81;65.09;99445.34;106014;1271;22531;-65
2022/06/20 07:34:50;;;;;;;17.20;5.40;;;;;;;24.91;64.61;99429.80;106103;1271;23766;-67
2022/06/20 07:37:27;;;;;;;18.60;5.30;;;;;;;25.02;64.50;99414.25;105741;1271;25406;-65
2022/06/20 07:40:05;;;;;;;16.60;5.50;;;;;;;25.13;64.48;99422.64;105794;1271;23954;-66
2022/06/20 07:42:45;;;;;;;17.10;5.70;;;;;;;25.27;64.19;99427.73;105669;1271;24363;-65
2022/06/20 07:45:23;;;;;;;17.50;5.20;;;;;;;25.39;63.89;99433.03;105758;1271;22657;-65
2022/06/20 07:47:57;;;;;;;17.80;5.10;;;;;;;25.50;63.48;99438.31;105929;1271;22646;-66
2022/06/20 07:50:35;;;;;;;17.20;5.50;;;;;;;25.58;63.26;99431.77;105812;1271;24431;-66
2022/06/20 07:53:16;;;;;;;19.70;5.80;;;;;;;25.71;62.90;99419.81;105904;1271;24231;-65
2022/06/20 07:55:56;;;;;;;16.10;4.70;;;;;;;25.82;62.96;99417.52;105972;1271;24328;-65
2022/06/20 07:58:32;;;;;;;15.40;5.00;;;;;;;25.95;62.30;99418.98;105859;1273;25368;-65
2022/06/20 08:01:07;;;;;;;18.60;5.30;;;;;;;26.02;61.84;99410.82;105778;1271;24367;-65
2022/06/20 08:03:45;;;;;;;16.10;4.70;;;;;;;26.06;61.79;99417.49;105883;1271;24237;-65
2022/06/20 08:06:32;;;;;;;14.50;4.90;;;;;;;26.03;61.40;99422.89;105802;1271;24294;-65
2022/06/20 08:09:08;;;;;;;16.30;5.00;;;;;;;26.02;61.20;99426.94;105817;1273;22594;-66
2022/06/20 08:11:46;;;;;;;17.20;4.70;;;;;;;25.98;61.05;99424.36;105770;1271;25318;-65
2022/06/20 08:14:25;;;;;;;16.80;5.20;;;;;;;25.96;61.06;99425.36;105897;1271;22577;-65
2022/06/20 08:17:02;;;;;;;15.10;4.20;;;;;;;25.91;60.77;99423.02;105896;1271;24282;-65
2022/06/20 08:19:35;;;;;;;14.90;5.00;;;;;;;25.87;60.55;99422.99;106053;1271;22557;-65
2022/06/20 08:22:11;;;;;;;20.30;4.70;;;;;;;25.81;60.63;99416.15;105753;1271;25253;-66
2022/06/20 08:24:50;;;;;;;15.80;4.40;;;;;;;25.76;60.50;99403.58;105778;1271;22567;-65
2022/06/20 08:27:29;;;;;;;15.70;5.30;;;;;;;25.68;60.53;99401.08;106001;1271;23081;-66
2022/06/20 08:30:03;;;;;;;;;;;;;;;25.60;60.31;99410.61;106193;1271;25526;-66
2022/06/20 08:32:41;;;;;;;19.50;4.60;;;;;;;25.51;60.33;99423.96;105972;1271;25306;-67
2022/06/20 08:35:20;;;;;;;19.60;4.90;;;;;;;25.42;60.60;99434.13;105942;1271;22532;-66
2022/06/20 08:37:58;;;;;;;11.00;3.90;;;;;;;25.32;60.66;99453.95;105906;1271;22788;-66
2022/06/20 08:41:05;;;;;;;15.40;5.50;;;;;;;25.25;60.85;99452.55;106018;1271;22687;-65
2022/06/20 08:44:12;;;;;;;16.00;4.80;;;;;;;25.17;61.23;99426.96;106128;1271;22701;-67
2022/06/20 08:47:28;;;;;;;16.40;5.60;;;;;;;25.08;61.61;99395.13;104892;1282;22628;-68
2022/06/20 08:50:44;;;;;;;21.00;5.10;;;;;;;24.91;62.53;99381.60;105254;1282;24163;-66
2022/06/20 08:53:48;;;;;;;20.20;5.50;;;;;;;24.70;63.34;99327.89;104948;1282;22572;-66
2022/06/20 08:56:38;;;;;;;15.40;4.70;;;;;;;24.49;64.13;99282.65;105207;1282;24332;-68
2022/06/20 08:59:20;;;;;;;16.10;5.00;;;;;;;24.25;64.87;99293.20;105428;1282;25447;-66
2022/06/20 09:02:00;;;;;;;13.50;3.90;;;;;;;23.95;64.84;99353.83;105419;1282;23212;-67
2022/06/20 09:04:46;;;;;;;11.20;3.50;;;;;;;23.66;64.72;99399.83;105520;1282;24291;-66
2022/06/20 09:07:48;;;;;;;14.90;2.30;;;;;;;23.36;64.82;99439.41;105432;1282;24400;-68
2022/06/20 09:10:43;;;;;;;13.90;3.60;;;;;;;23.16;65.12;99409.55;105368;1281;24311;-67
2022/06/20 09:13:31;;;;;;;14.80;3.90;;;;;;;23.05;65.50;99367.51;105390;1282;22563;-66
2022/06/20 09:16:15;;;;;;;15.90;4.90;;;;;;;22.93;67.15;99373.64;105441;1281;25374;-66
2022/06/20 09:19:03;;;;;;;14.10;4.40;;;;;;;22.82;67.73;99402.44;105359;1282;25367;-66
2022/06/20 09:21:42;;;;;;;17.80;5.80;;;;;;;22.70;67.93;99399.18;105357;1282;23987;-65
2022/06/20 09:24:27;;;;;;;20.30;5.40;;;;;;;22.70;67.94;99399.25;105900;1272;22531;-66
2022/06/20 09:27:07;;;;;;;21.90;5.30;;;;;;;22.72;68.34;99387.67;106608;1271;24822;-66
2022/06/20 09:30:03;;;;;;;20.00;6.90;;;;;;;22.77;68.88;99374.12;106243;1271;23752;-65
2022/06/20 09:33:08;;;;;;;19.50;6.70;;;;;;;22.79;69.58;99346.09;106046;1271;22572;-62
2022/06/20 09:36:10;;;;;;;19.10;7.20;;;;;;;22.79;70.20;99363.59;106142;1271;22650;-64
2022/06/20 09:39:06;;;;;;;18.90;7.80;;;;;;;22.77;70.70;99387.05;106340;1271;22543;-64
2022/06/20 09:41:45;;;;;;;24.60;8.50;;;;;;;22.75;71.37;99387.57;106253;1271;24837;-64
2022/06/20 09:44:30;;;;;;;24.00;9.60;;;;;;;22.73;71.50;99429.02;106142;1273;25271;-64
2022/06/20 09:47:22;;;;;;;19.60;9.00;;;;;;;22.72;71.88;99442.56;106343;1271;25263;-64
2022/06/20 09:50:03;;;;;;;22.50;7.70;;;;;;;22.70;72.00;99419.45;106177;1271;23969;-65
2022/06/20 09:52:45;;;;;;;23.30;8.80;;;;;;;22.65;72.23;99413.63;105958;1273;22568;-64
2022/06/20 09:55:26;;;;;;;25.50;8.40;;;;;;;22.62;72.38;99420.54;106158;1272;22544;-65
2022/06/20 09:58:06;;;;;;;19.20;8.00;;;;;;;22.60;73.17;99449.59;106131;1271;25434;-65
2022/06/20 10:00:46;;;;;;;22.90;9.00;;;;;;;22.55;73.93;99484.30;106045;1271;22689;-64
2022/06/20 10:03:27;;;;;;;19.30;7.60;;;;;;;22.47;74.06;99507.11;106347;1271;22532;-65
2022/06/20 10:06:17;;;;;;;21.20;8.40;;;;;;;22.41;74.38;99528.88;106093;1271;26242;-64
2022/06/20 10:09:03;;;;;;;22.20;8.20;;;;;;;22.34;74.97;99554.24;106053;1271;22588;-63
2022/06/20 10:11:42;;;;;;;22.00;7.80;;;;;;;22.26;75.36;99549.44;106211;1271;22567;-64
2022/06/20 10:14:19;;;;;;;21.10;7.50;;;;;;;22.19;75.50;99535.45;106011;1271;22833;-64
2022/06/20 10:17:01;;;;;;;19.40;7.60;;;;;;;22.12;75.57;99533.68;106080;1271;24301;-63
2022/06/20 10:19:44;;;;;;;18.10;6.60;;;;;;;22.07;75.23;99532.67;106154;1271;24290;-64
2022/06/20 10:22:24;;;;;;;22.40;6.50;;;;;;;22.06;75.44;99537.75;106079;1271;22534;-64
2022/06/20 10:25:26;;;;;;;;;;;;;;;22.05;75.38;99546.02;106120;1271;22532;-63
2022/06/20 10:28:03;;;;;;;21.00;5.30;;;;;;;22.00;75.61;99551.28;105636;1276;26658;-64
2022/06/20 10:30:43;;;;;;;21.20;5.30;;;;;;;21.96;75.58;99553.15;105687;1276;25420;-63
2022/06/20 10:33:41;;;;;;;17.80;5.40;;;;;;;21.90;75.58;99561.73;105671;1276;23611;-63
2022/06/20 10:36:22;;;;;;;16.10;5.40;;;;;;;21.86;75.52;99553.54;105693;1276;25421;-61
2022/06/20 10:39:09;;;;;;;17.70;4.80;;;;;;;21.85;75.71;99535.98;105701;1276;22696;-62
2022/06/20 10:41:51;;;;;;;18.50;5.70;;;;;;;21.78;75.65;99529.78;105766;1276;26511;-65
2022/06/20 10:44:29;;;;;;;17.30;5.10;;;;;;;21.73;75.93;99515.59;105708;1276;22574;-62
2022/06/20 10:47:09;;;;;;;16.10;5.20;;;;;;;21.60;76.01;99536.13;105708;1276;24013;-62
2022/06/20 10:49:54;;;;;;;;;;;;;;;21.44;76.14;99554.27;105683;1276;22637;-61
2022/06/20 10:52:43;;;;;;;18.70;5.50;;;;;;;21.37;76.52;99557.55;105562;1276;22538;-62
2022/06/20 10:56:02;;;;;;;15.40;4.50;;;;;;;21.28;76.59;99550.52;105660;1277;22748;-65
2022/06/20 10:58:50;;;;;;;13.50;3.90;;;;;;;21.15;76.75;99529.30;105671;1276;24229;-64
2022/06/20 11:01:39;;;;;;;12.20;4.00;;;;;;;21.12;77.08;99467.85;106019;1271;24234;-65
2022/06/20 11:04:39;;;;;;;12.80;4.20;;;;;;;21.15;77.20;99416.97;106120;1271;24358;-68
2022/06/20 11:07:42;;;;;;;17.10;5.70;;;;;;;21.18;77.12;99460.72;106084;1272;25409;-65
2022/06/20 11:10:46;;;;;;;14.00;4.80;;;;;;;21.14;77.37;99537.02;106177;1271;25330;-66
2022/06/20 11:13:29;;;;;;;15.40;5.20;;;;;;;21.17;77.82;99498.07;106054;1271;26644;-65
2022/06/20 11:16:16;;;;;;;26.10;5.90;;;;;;;21.18;77.86;99486.15;106017;1272;24221;-66
2022/06/20 11:19:05;;;;;;;14.20;4.90;;;;;;;21.18;78.00;99503.32;106113;1271;25406;-65
2022/06/20 11:21:53;;;;;;;18.30;4.90;;;;;;;21.18;78.32;99525.85;106076;1271;24359;-65
2022/06/20 11:24:38;;;;;;;17.80;4.80;;;;;;;21.15;78.70;99528.80;105988;1271;22686;-65
2022/06/20 11:27:25;;;;;;;19.30;5.50;;;;;;;21.12;79.01;99519.46;105985;1271;22550;-67
2022/06/20 11:30:07;;;;;;;14.80;4.80;;;;;;;21.12;79.46;99518.02;106085;1271;22694;-66
2022/06/20 11:32:51;;;;;;;15.50;5.60;;;;;;;21.13;79.70;99514.73;106022;1273;24060;-66
2022/06/20 11:35:36;;;;;;;13.80;5.50;;;;;;;21.18;80.25;99512.64;106184;1271;25581;-66
2022/06/20 11:38:29;;;;;;;20.80;5.40;;;;;;;21.24;80.55;99512.32;106266;1271;25531;-67
2022/06/20 11:41:08;;;;;;;19.90;6.00;;;;;;;21.31;80.92;99515.55;106034;1271;22979;-67
2022/06/20 11:44:07;;;;;;;16.20;6.20;;;;;;;21.41;81.08;99500.80;106276;1271;26063;-68
2022/06/20 11:47:02;;;;;;;16.00;4.90;;;;;;;21.49;80.59;99498.21;106314;1271;25821;-68
2022/06/20 11:49:50;;;;;;;16.70;6.20;;;;;;;21.56;80.79;99486.53;106413;1271;25406;-69
2022/06/20 11:52:29;;;;;;;15.70;5.70;;;;;;;21.65;80.51;99470.51;106320;1271;23955;-68
2022/06/20 11:55:12;;;;;;;11.30;4.20;;;;;;;21.81;80.97;99473.95;106336;1271;22558;-68
2022/06/20 11:57:54;;;;;;;14.80;4.60;;;;;;;21.97;80.70;99474.55;106330;1271;22679;-67
2022/06/20 12:00:33;;;;;;;15.10;4.90;;;;;;;22.02;80.15;99489.91;106276;1271;22560;-67
2022/06/20 12:03:14;;;;;;;14.30;5.50;;;;;;;22.06;80.11;99497.52;106341;1271;23802;-67
2022/06/20 12:05:55;;;;;;;13.80;4.90;;;;;;;22.15;80.41;99488.39;106161;1271;22824;-67
2022/06/20 12:08:37;;;;;;;12.80;3.80;;;;;;;22.25;80.07;99490.39;106210;1270;22528;-65
2022/06/20 12:11:38;;;;;;;13.40;3.50;;;;;;;22.32;79.01;99493.14;106097;1271;22525;-64
2022/06/20 12:14:22;;;;;;;12.20;3.10;;;;;;;22.37;78.65;99504.10;106153;1271;25532;-65
2022/06/20 12:17:06;;;;;;;12.30;3.40;;;;;;;22.41;78.37;99495.23;106225;1272;24209;-66
2022/06/20 12:25:31;;;;;;;;;;;;;;;22.40;77.56;99540.92;106106;1273;22531;-65
2022/06/20 12:28:03;;;;;;;16.40;7.60;;;;;;;22.30;77.07;99525.34;106116;1271;22596;-65
2022/06/20 12:30:35;;;;;;;17.50;8.50;;;;;;;22.15;76.59;99510.84;106101;1271;24194;-64
2022/06/20 12:33:10;;;;;;;16.10;7.70;;;;;;;22.02;76.57;99481.69;106254;1273;25316;-65
2022/06/20 12:35:45;;;;;;;15.30;7.50;;;;;;;21.99;76.93;99466.17;106306;1272;25379;-65